createdAt,value
2022-08-26T00:02:07.140Z,22.85
2022-08-26T00:04:34.852Z,22.94
2022-08-26T00:07:05.355Z,22.88
2022-08-26T00:09:33.507Z,22.96
2022-08-26T00:12:07.029Z,22.89
2022-08-26T00:14:34.597Z,22.88
2022-08-26T00:17:02.329Z,22.93
2022-08-26T00:19:30.174Z,22.85
2022-08-26T00:21:57.873Z,22.89
2022-08-26T00:24:26.817Z,23.10
2022-08-26T00:26:54.448Z,23.24
2022-08-26T00:29:22.208Z,23.29
2022-08-26T00:31:50.191Z,23.33
2022-08-26T00:34:19.526Z,23.33
2022-08-26T00:36:47.382Z,23.32
2022-08-26T00:39:16.901Z,23.35
2022-08-26T00:41:46.086Z,23.38
2022-08-26T00:44:13.890Z,23.40
2022-08-26T00:46:46.354Z,23.42
2022-08-26T00:49:15.162Z,23.44
2022-08-26T00:51:45.517Z,23.46
2022-08-26T00:54:13.267Z,23.47
2022-08-26T00:56:42.833Z,23.48
2022-08-26T00:59:13.364Z,23.46
2022-08-26T01:01:42.362Z,23.47
2022-08-26T01:04:13.994Z,23.47
2022-08-26T01:06:41.922Z,23.48
2022-08-26T01:09:12.051Z,23.49
2022-08-26T01:11:39.874Z,23.47
2022-08-26T01:14:07.944Z,23.45
2022-08-26T01:16:37.458Z,23.42
2022-08-26T01:19:07.856Z,23.42
2022-08-26T01:21:40.727Z,23.42
2022-08-26T01:24:10.380Z,23.42
2022-08-26T01:26:40.508Z,23.41
2022-08-26T01:29:08.539Z,23.43
2022-08-26T01:31:37.714Z,23.45
2022-08-26T01:34:07.274Z,23.47
2022-08-26T01:36:36.664Z,23.48
2022-08-26T01:39:05.877Z,23.51
2022-08-26T01:41:36.505Z,23.51
2022-08-26T01:44:05.256Z,23.49
2022-08-26T01:46:32.868Z,23.49
2022-08-26T01:49:01.346Z,23.49
2022-08-26T01:51:29.913Z,23.49
2022-08-26T01:53:57.842Z,23.50
2022-08-26T01:56:33.139Z,23.48
2022-08-26T01:59:02.511Z,23.47
2022-08-26T02:01:30.103Z,23.43
2022-08-26T02:04:00.273Z,23.42
2022-08-26T02:06:27.936Z,23.44
2022-08-26T02:08:56.676Z,23.47
2022-08-26T02:11:24.331Z,23.45
2022-08-26T02:13:54.787Z,23.45
2022-08-26T02:16:24.950Z,23.45
2022-08-26T02:18:53.290Z,23.44
2022-08-26T02:21:21.015Z,23.43
2022-08-26T02:23:49.121Z,23.42
2022-08-26T02:26:18.149Z,23.41
2022-08-26T02:28:47.992Z,23.38
2022-08-26T02:31:15.626Z,23.38
2022-08-26T02:33:44.601Z,23.39
2022-08-26T02:36:13.472Z,23.43
2022-08-26T02:38:43.257Z,23.44
2022-08-26T02:41:11.233Z,23.41
2022-08-26T02:43:38.858Z,23.41
2022-08-26T02:46:06.550Z,23.40
2022-08-26T02:48:34.169Z,23.40
2022-08-26T02:51:05.060Z,23.41
2022-08-26T02:53:35.573Z,23.40
2022-08-26T02:56:03.642Z,23.38
2022-08-26T02:58:31.412Z,23.41
2022-08-26T03:00:59.384Z,23.39
2022-08-26T03:03:29.352Z,23.37
2022-08-26T03:05:58.260Z,23.36
2022-08-26T03:08:27.558Z,23.36
2022-08-26T03:10:55.172Z,23.36
2022-08-26T03:13:23.585Z,23.38
2022-08-26T03:15:51.234Z,23.39
2022-08-26T03:18:18.915Z,23.39
2022-08-26T03:20:48.273Z,23.37
2022-08-26T03:23:16.453Z,23.33
2022-08-26T03:25:51.190Z,23.31
2022-08-26T03:28:19.434Z,23.30
2022-08-26T03:30:47.477Z,23.33
2022-08-26T03:33:15.290Z,23.30
2022-08-26T03:35:43.676Z,23.31
2022-08-26T03:38:11.345Z,23.33
2022-08-26T03:40:39.887Z,23.33
2022-08-26T03:43:10.359Z,23.30
2022-08-26T03:45:38.527Z,23.33
2022-08-26T03:48:06.325Z,23.36
2022-08-26T03:50:35.779Z,23.28
2022-08-26T03:53:04.117Z,23.27
2022-08-26T03:55:32.453Z,23.26
2022-08-26T03:58:01.093Z,23.23
2022-08-26T04:00:30.160Z,23.23
2022-08-26T04:02:57.847Z,23.22
2022-08-26T04:05:25.552Z,23.22
2022-08-26T04:07:53.111Z,23.24
2022-08-26T04:10:28.804Z,23.21
2022-08-26T04:12:58.866Z,23.23
2022-08-26T04:15:26.968Z,23.27
2022-08-26T04:17:57.338Z,23.28
2022-08-26T04:20:25.317Z,23.22
2022-08-26T04:22:53.094Z,23.21
2022-08-26T04:25:21.468Z,23.20
2022-08-26T04:27:50.021Z,23.23
2022-08-26T04:30:20.004Z,23.21
2022-08-26T04:32:47.727Z,23.15
2022-08-26T04:35:17.513Z,23.15
2022-08-26T04:37:45.363Z,23.17
2022-08-26T04:40:13.222Z,23.18
2022-08-26T04:42:40.912Z,23.19
2022-08-26T04:45:09.943Z,23.14
2022-08-26T04:47:38.244Z,23.12
2022-08-26T04:50:06.935Z,23.12
2022-08-26T04:52:36.611Z,23.11
2022-08-26T04:55:06.534Z,23.10
2022-08-26T04:57:36.375Z,23.15
2022-08-26T05:00:04.779Z,23.22
2022-08-26T05:02:32.402Z,23.29
2022-08-26T05:05:00.735Z,23.28
2022-08-26T05:07:28.608Z,23.04
2022-08-26T05:09:57.737Z,22.90
2022-08-26T05:12:25.354Z,22.90
2022-08-26T05:14:53.450Z,23.14
2022-08-26T05:17:21.083Z,23.23
2022-08-26T05:19:50.621Z,23.27
2022-08-26T05:22:18.429Z,23.27
2022-08-26T05:24:46.489Z,23.31
2022-08-26T05:27:15.745Z,23.36
2022-08-26T05:29:45.702Z,23.37
2022-08-26T05:32:13.777Z,23.39
2022-08-26T05:34:42.982Z,23.45
2022-08-26T05:37:10.717Z,23.45
2022-08-26T05:39:41.346Z,23.51
2022-08-26T05:42:11.681Z,23.50
2022-08-26T05:44:55.426Z,23.51
2022-08-26T05:47:23.516Z,23.52
2022-08-26T05:49:51.656Z,23.54
2022-08-26T05:52:19.665Z,23.55
2022-08-26T05:54:47.705Z,23.55
2022-08-26T05:57:15.888Z,23.56
2022-08-26T05:59:45.147Z,23.58
2022-08-26T06:02:13.992Z,23.60
2022-08-26T06:04:43.441Z,23.59
2022-08-26T06:07:11.562Z,23.59
2022-08-26T06:09:41.498Z,23.61
2022-08-26T06:12:09.340Z,23.62
2022-08-26T06:14:37.046Z,23.64
2022-08-26T06:17:06.346Z,23.64
2022-08-26T06:19:37.267Z,23.65
2022-08-26T06:22:29.311Z,23.65
2022-08-26T06:25:14.560Z,23.66
2022-08-26T06:27:42.162Z,23.67
2022-08-26T06:30:10.423Z,23.68
2022-08-26T06:32:39.416Z,23.70
2022-08-26T06:35:12.241Z,23.70
2022-08-26T06:37:40.054Z,23.70
2022-08-26T06:40:09.428Z,23.72
2022-08-26T06:42:39.118Z,23.72
2022-08-26T06:45:07.462Z,23.74
2022-08-26T06:47:36.293Z,23.75
2022-08-26T06:50:05.676Z,23.71
2022-08-26T06:52:33.302Z,23.75
2022-08-26T06:55:02.626Z,23.78
2022-08-26T06:57:32.853Z,23.80
2022-08-26T07:00:02.776Z,23.80
2022-08-26T07:02:30.692Z,23.79
2022-08-26T07:04:58.458Z,23.79
2022-08-26T07:07:27.475Z,23.79
2022-08-26T07:09:55.372Z,23.80
2022-08-26T07:12:23.024Z,23.81
2022-08-26T07:14:53.012Z,23.82
2022-08-26T07:17:21.482Z,23.83
2022-08-26T07:19:53.633Z,23.83
2022-08-26T07:22:21.548Z,23.84
2022-08-26T07:24:50.704Z,23.86
2022-08-26T07:27:18.277Z,23.86
2022-08-26T07:29:45.973Z,23.88
2022-08-26T07:32:14.220Z,23.88
2022-08-26T07:34:42.545Z,23.90
2022-08-26T07:37:10.123Z,23.89
2022-08-26T07:39:37.955Z,23.89
2022-08-26T07:42:09.495Z,23.90
2022-08-26T07:44:37.601Z,23.91
2022-08-26T07:47:10.067Z,23.90
2022-08-26T07:49:52.685Z,23.92
2022-08-26T07:52:25.317Z,23.92
2022-08-26T07:54:54.144Z,23.93
2022-08-26T07:57:24.277Z,23.94
2022-08-26T07:59:52.106Z,23.94
2022-08-26T08:02:22.188Z,23.95
2022-08-26T08:04:49.961Z,23.95
2022-08-26T08:07:17.890Z,23.96
2022-08-26T08:09:45.480Z,23.95
2022-08-26T08:12:14.220Z,23.96
2022-08-26T08:14:45.359Z,23.95
2022-08-26T08:17:13.252Z,23.98
2022-08-26T08:19:40.889Z,23.97
2022-08-26T08:22:17.626Z,23.97
2022-08-26T08:24:49.663Z,23.98
2022-08-26T08:27:22.815Z,23.98
2022-08-26T08:29:54.899Z,23.98
2022-08-26T08:32:24.378Z,24.00
2022-08-26T08:34:52.936Z,24.00
2022-08-26T08:37:21.006Z,24.02
2022-08-26T08:39:49.466Z,24.02
2022-08-26T08:42:29.256Z,24.02
2022-08-26T08:44:58.592Z,24.02
2022-08-26T08:47:29.097Z,24.04
2022-08-26T08:49:57.213Z,24.04
2022-08-26T08:52:29.056Z,24.04
2022-08-26T08:54:57.193Z,24.06
2022-08-26T08:57:26.840Z,24.07
2022-08-26T08:59:55.590Z,24.08
2022-08-26T09:02:25.337Z,24.10
2022-08-26T09:04:57.517Z,24.11
2022-08-26T09:07:27.199Z,24.11
2022-08-26T09:09:55.760Z,24.11
2022-08-26T09:12:29.490Z,24.14
2022-08-26T09:14:59.790Z,24.14
2022-08-26T09:17:31.331Z,24.18
2022-08-26T09:20:02.215Z,24.17
2022-08-26T09:22:30.679Z,24.17
2022-08-26T09:24:58.554Z,24.16
2022-08-26T09:27:44.302Z,24.07
2022-08-26T09:30:13.180Z,24.17
2022-08-26T09:32:44.424Z,24.17
2022-08-26T09:35:25.288Z,24.18
2022-08-26T09:37:53.680Z,24.18
2022-08-26T09:40:24.048Z,24.18
2022-08-26T09:43:08.019Z,24.18
2022-08-26T09:45:35.846Z,24.17
2022-08-26T09:48:04.967Z,24.18
2022-08-26T09:50:33.305Z,24.20
2022-08-26T09:53:12.973Z,24.19
2022-08-26T09:55:41.949Z,24.19
2022-08-26T09:58:10.374Z,24.19
2022-08-26T10:00:38.766Z,24.19
2022-08-26T10:03:09.072Z,24.19
2022-08-26T10:05:39.737Z,24.19
2022-08-26T10:08:23.582Z,24.20
2022-08-26T10:10:53.424Z,24.20
2022-08-26T10:13:24.442Z,24.20
2022-08-26T10:15:55.660Z,24.22
2022-08-26T10:18:26.674Z,24.26
2022-08-26T10:20:59.666Z,24.26
2022-08-26T10:23:28.524Z,24.24
2022-08-26T10:25:58.960Z,24.24
2022-08-26T10:28:28.977Z,24.25
2022-08-26T10:30:57.837Z,24.24
2022-08-26T10:33:27.264Z,24.24
2022-08-26T10:35:56.561Z,24.25
2022-08-26T10:38:28.728Z,24.26
2022-08-26T10:40:58.630Z,24.26
2022-08-26T10:43:27.626Z,24.21
2022-08-26T10:45:56.206Z,24.27
2022-08-26T10:48:25.607Z,24.27
2022-08-26T10:51:05.661Z,24.27
2022-08-26T10:53:35.913Z,24.28
2022-08-26T10:56:06.300Z,24.27
2022-08-26T10:58:50.023Z,24.28
2022-08-26T11:01:36.409Z,24.28
2022-08-26T11:04:11.341Z,24.28
2022-08-26T11:06:41.926Z,24.28
2022-08-26T11:09:09.998Z,24.27
2022-08-26T11:11:48.012Z,24.27
2022-08-26T11:14:42.089Z,24.26
2022-08-26T11:17:36.411Z,24.26
2022-08-26T11:20:09.244Z,24.26
2022-08-26T11:22:47.875Z,24.26
2022-08-26T11:25:15.779Z,24.27
2022-08-26T11:28:04.306Z,24.27
2022-08-26T11:30:37.375Z,24.27
2022-08-26T11:33:06.169Z,24.26
2022-08-26T11:35:46.946Z,24.27
2022-08-26T11:38:19.178Z,24.27
2022-08-26T11:40:46.802Z,24.29
2022-08-26T11:43:16.888Z,24.30
2022-08-26T11:45:44.917Z,24.29
2022-08-26T11:48:15.876Z,24.30
2022-08-26T11:50:53.119Z,24.30
2022-08-26T11:53:22.953Z,24.30
2022-08-26T11:55:51.390Z,24.30
2022-08-26T11:58:20.867Z,24.30
2022-08-26T12:00:51.349Z,24.30
2022-08-26T12:03:20.811Z,24.30
2022-08-26T12:05:51.842Z,24.29
2022-08-26T12:08:21.557Z,24.29
2022-08-26T12:10:53.234Z,24.29
2022-08-26T12:13:22.238Z,24.29
2022-08-26T12:15:53.078Z,24.30
2022-08-26T12:18:29.554Z,24.30
2022-08-26T12:21:05.770Z,24.32
2022-08-26T12:23:50.855Z,24.34
2022-08-26T12:26:26.655Z,24.34
2022-08-26T12:28:58.924Z,24.33
2022-08-26T12:31:28.695Z,24.33
2022-08-26T12:33:57.068Z,24.32
2022-08-26T12:36:28.802Z,24.33
2022-08-26T12:38:58.383Z,24.33
2022-08-26T12:41:41.622Z,24.32
2022-08-26T12:44:09.399Z,24.32
2022-08-26T12:46:37.579Z,24.32
2022-08-26T12:49:05.322Z,24.33
2022-08-26T12:51:33.125Z,24.32
2022-08-26T12:54:02.249Z,24.33
2022-08-26T12:56:32.429Z,24.33
2022-08-26T12:59:11.171Z,24.33
2022-08-26T13:01:42.912Z,24.33
2022-08-26T13:04:26.036Z,24.32
2022-08-26T13:07:08.517Z,24.33
2022-08-26T13:09:36.361Z,24.34
2022-08-26T13:12:04.418Z,24.33
2022-08-26T13:14:33.381Z,24.34
2022-08-26T13:17:04.362Z,24.35
2022-08-26T13:19:32.458Z,24.34
2022-08-26T13:22:00.646Z,24.34
2022-08-26T13:24:30.038Z,24.36
2022-08-26T13:27:00.155Z,24.36
2022-08-26T13:29:27.761Z,24.35
2022-08-26T13:31:57.778Z,24.34
2022-08-26T13:34:25.495Z,24.34
2022-08-26T13:36:54.173Z,24.34
2022-08-26T13:39:22.079Z,24.34
2022-08-26T13:41:49.838Z,24.35
2022-08-26T13:44:17.695Z,24.35
2022-08-26T13:46:47.746Z,24.33
2022-08-26T13:49:16.953Z,24.34
2022-08-26T13:51:44.621Z,24.34
2022-08-26T13:54:12.256Z,24.33
2022-08-26T13:56:40.201Z,24.33
2022-08-26T13:59:07.899Z,24.30
2022-08-26T14:01:36.122Z,24.30
2022-08-26T14:04:04.235Z,24.31
2022-08-26T14:06:33.521Z,24.32
2022-08-26T14:09:01.517Z,24.30
2022-08-26T14:11:30.254Z,24.29
2022-08-26T14:14:16.750Z,24.30
2022-08-26T14:16:59.718Z,24.30
2022-08-26T14:19:28.651Z,24.30
2022-08-26T14:21:58.865Z,24.31
2022-08-26T14:24:26.570Z,24.31
2022-08-26T14:26:54.228Z,24.31
2022-08-26T14:29:22.156Z,24.31
2022-08-26T14:31:49.895Z,24.30
2022-08-26T14:34:17.866Z,24.31
2022-08-26T14:36:45.500Z,24.32
2022-08-26T14:39:14.859Z,24.32
2022-08-26T14:41:43.904Z,24.32
2022-08-26T14:44:12.582Z,24.33
2022-08-26T14:46:44.865Z,24.33
2022-08-26T14:49:12.740Z,24.33
2022-08-26T14:51:41.058Z,24.34
2022-08-26T14:54:13.867Z,24.32
2022-08-26T14:56:44.092Z,24.30
2022-08-26T14:59:11.768Z,24.30
2022-08-26T15:01:39.587Z,24.30
2022-08-26T15:04:07.344Z,24.28
2022-08-26T15:06:35.716Z,24.28
2022-08-26T15:09:03.418Z,24.26
2022-08-26T15:11:31.121Z,24.28
2022-08-26T15:14:00.887Z,24.25
2022-08-26T15:16:29.299Z,24.26
2022-08-26T15:18:56.945Z,24.26
2022-08-26T15:21:24.621Z,24.27
2022-08-26T15:23:52.629Z,24.28
2022-08-26T15:26:21.187Z,24.29
2022-08-26T15:28:48.943Z,24.30
2022-08-26T15:31:17.923Z,24.32
2022-08-26T15:33:45.890Z,24.32
2022-08-26T15:36:13.524Z,24.32
2022-08-26T15:38:41.497Z,24.32
2022-08-26T15:41:09.384Z,24.30
2022-08-26T15:43:37.271Z,24.30
2022-08-26T15:46:05.153Z,24.31
2022-08-26T15:48:34.353Z,24.33
2022-08-26T15:51:02.129Z,24.33
2022-08-26T15:53:30.100Z,24.32
2022-08-26T15:55:57.800Z,24.31
2022-08-26T15:58:26.403Z,24.32
2022-08-26T16:00:54.878Z,24.33
2022-08-26T16:03:22.668Z,24.33
2022-08-26T16:05:52.013Z,24.32
2022-08-26T16:08:20.375Z,24.32
2022-08-26T16:10:50.685Z,24.32
2022-08-26T16:13:18.958Z,24.31
2022-08-26T16:15:47.459Z,24.33
2022-08-26T16:18:15.637Z,24.34
2022-08-26T16:20:55.364Z,24.32
2022-08-26T16:23:37.608Z,24.31
2022-08-26T16:26:10.584Z,24.31
2022-08-26T16:28:38.437Z,24.30
2022-08-26T16:31:08.368Z,24.31
2022-08-26T16:33:37.705Z,24.29
2022-08-26T16:36:05.628Z,24.29
2022-08-26T16:38:33.301Z,24.30
2022-08-26T16:41:02.254Z,24.29
2022-08-26T16:43:29.890Z,24.28
2022-08-26T16:45:57.658Z,24.28
2022-08-26T16:48:25.347Z,24.28
2022-08-26T16:50:55.403Z,24.29
2022-08-26T16:53:23.258Z,24.29
2022-08-26T16:55:51.404Z,24.29
2022-08-26T16:58:23.570Z,24.28
2022-08-26T17:00:51.266Z,24.29
2022-08-26T17:03:18.903Z,24.28
2022-08-26T17:05:46.634Z,24.27
2022-08-26T17:08:24.251Z,24.27
2022-08-26T17:10:56.028Z,24.27
2022-08-26T17:13:35.931Z,24.27
2022-08-26T17:16:05.022Z,24.27
2022-08-26T17:18:33.350Z,24.27
2022-08-26T17:21:01.528Z,24.25
2022-08-26T17:23:29.777Z,24.26
2022-08-26T17:25:57.722Z,24.24
2022-08-26T17:28:26.780Z,24.25
2022-08-26T17:30:56.155Z,24.26
2022-08-26T17:33:24.781Z,24.25
2022-08-26T17:35:52.959Z,24.26
2022-08-26T17:38:20.784Z,24.25
2022-08-26T17:40:48.545Z,24.26
2022-08-26T17:43:16.728Z,24.23
2022-08-26T17:45:45.636Z,24.24
2022-08-26T17:48:13.211Z,24.23
2022-08-26T17:50:41.215Z,24.23
2022-08-26T17:53:08.975Z,24.23
2022-08-26T17:55:41.417Z,24.21
2022-08-26T17:58:14.661Z,24.22
2022-08-26T18:00:44.902Z,24.20
2022-08-26T18:03:12.567Z,24.21
2022-08-26T18:05:40.162Z,24.20
2022-08-26T18:08:11.051Z,24.19
2022-08-26T18:10:43.752Z,24.20
2022-08-26T18:13:11.491Z,24.19
2022-08-26T18:15:40.062Z,24.19
2022-08-26T18:18:09.289Z,24.20
2022-08-26T18:20:38.692Z,24.20
2022-08-26T18:23:06.619Z,24.20
2022-08-26T18:25:34.521Z,24.19
2022-08-26T18:28:04.135Z,24.19
2022-08-26T18:30:31.807Z,24.18
2022-08-26T18:32:59.580Z,24.15
2022-08-26T18:35:30.351Z,24.17
2022-08-26T18:37:58.326Z,24.17
2022-08-26T18:40:30.029Z,24.15
2022-08-26T18:42:57.878Z,24.15
2022-08-26T18:45:25.714Z,24.14
2022-08-26T18:47:53.533Z,24.14
2022-08-26T18:50:21.222Z,24.11
2022-08-26T18:52:50.370Z,24.11
2022-08-26T18:55:18.024Z,24.14
2022-08-26T18:57:45.656Z,24.11
2022-08-26T19:00:13.818Z,23.76
2022-08-26T19:02:41.478Z,23.59
2022-08-26T19:05:14.587Z,23.42
2022-08-26T19:07:42.212Z,23.32
2022-08-26T19:10:14.814Z,23.24
2022-08-26T19:12:42.563Z,23.31
2022-08-26T19:15:11.996Z,23.36
2022-08-26T19:17:39.592Z,23.34
2022-08-26T19:20:07.923Z,23.36
2022-08-26T19:22:35.542Z,23.22
2022-08-26T19:25:05.395Z,23.43
2022-08-26T19:27:34.616Z,23.54
2022-08-26T19:30:02.338Z,23.56
2022-08-26T19:32:30.193Z,23.60
2022-08-26T19:34:58.064Z,23.58
2022-08-26T19:37:26.250Z,23.55
2022-08-26T19:39:53.989Z,23.45
2022-08-26T19:42:21.580Z,23.44
2022-08-26T19:45:24.569Z,23.41
2022-08-26T19:47:54.136Z,23.36
2022-08-26T19:50:22.147Z,23.33
2022-08-26T19:52:53.035Z,23.36
2022-08-26T19:55:23.676Z,23.39
2022-08-26T19:57:52.397Z,23.36
2022-08-26T20:00:22.353Z,23.31
2022-08-26T20:02:50.305Z,23.26
2022-08-26T20:05:18.126Z,23.20
2022-08-26T20:07:45.795Z,23.17
2022-08-26T20:10:13.612Z,23.13
2022-08-26T20:12:41.618Z,23.18
2022-08-26T20:15:09.557Z,23.25
2022-08-26T20:17:38.714Z,23.27
2022-08-26T20:20:32.898Z,23.28
2022-08-26T20:23:02.080Z,23.24
2022-08-26T20:25:29.928Z,23.17
2022-08-26T20:28:00.797Z,23.12
2022-08-26T20:30:28.592Z,23.20
2022-08-26T20:32:57.790Z,23.20
2022-08-26T20:35:25.844Z,23.17
2022-08-26T20:38:01.110Z,23.15
2022-08-26T20:40:29.081Z,23.17
2022-08-26T20:42:56.732Z,23.11
2022-08-26T20:45:24.572Z,23.07
2022-08-26T20:47:54.724Z,23.06
2022-08-26T20:50:23.961Z,23.07
2022-08-26T20:52:53.784Z,23.01
2022-08-26T20:55:21.495Z,23.03
2022-08-26T20:57:49.162Z,23.04
2022-08-26T21:00:22.412Z,23.07
2022-08-26T21:02:54.242Z,23.10
2022-08-26T21:05:25.490Z,23.06
2022-08-26T21:07:55.802Z,23.11
2022-08-26T21:10:23.884Z,23.09
2022-08-26T21:12:51.633Z,23.04
2022-08-26T21:15:24.911Z,23.02
2022-08-26T21:18:00.420Z,22.97
2022-08-26T21:20:37.085Z,22.93
2022-08-26T21:23:05.210Z,23.00
2022-08-26T21:25:35.566Z,23.04
2022-08-26T21:28:03.220Z,23.04
2022-08-26T21:30:31.313Z,23.01
2022-08-26T21:32:59.182Z,22.97
2022-08-26T21:35:27.026Z,22.97
2022-08-26T21:38:16.440Z,22.94
2022-08-26T21:40:46.424Z,22.97
2022-08-26T21:43:34.929Z,23.03
2022-08-26T21:46:03.993Z,23.01
2022-08-26T21:48:34.636Z,22.95
2022-08-26T21:51:03.212Z,22.89
2022-08-26T21:53:32.359Z,22.88
2022-08-26T21:56:00.029Z,22.87
2022-08-26T21:58:28.303Z,22.97
2022-08-26T22:00:56.091Z,22.99
2022-08-26T22:03:23.879Z,23.03
2022-08-26T22:05:51.630Z,23.08
2022-08-26T22:08:20.518Z,23.01
2022-08-26T22:10:52.003Z,22.96
2022-08-26T22:13:20.180Z,22.99
2022-08-26T22:15:47.953Z,23.00
2022-08-26T22:18:15.784Z,22.89
2022-08-26T22:20:46.238Z,22.85
2022-08-26T22:23:14.094Z,22.82
2022-08-26T22:25:41.894Z,22.78
2022-08-26T22:28:11.168Z,22.77
2022-08-26T22:30:39.861Z,22.82
2022-08-26T22:33:07.788Z,22.85
2022-08-26T22:35:38.862Z,22.87
2022-08-26T22:38:06.753Z,22.94
2022-08-26T22:40:34.910Z,22.96
2022-08-26T22:43:03.283Z,22.93
2022-08-26T22:45:32.405Z,22.94
2022-08-26T22:48:00.406Z,22.85
2022-08-26T22:50:28.912Z,22.72
2022-08-26T22:52:56.846Z,22.66
2022-08-26T22:55:24.788Z,22.65
2022-08-26T22:57:52.525Z,22.64
2022-08-26T23:00:20.240Z,22.63
2022-08-26T23:03:04.450Z,22.60
2022-08-26T23:05:36.639Z,22.59
2022-08-26T23:08:04.681Z,22.57
2022-08-26T23:10:32.614Z,22.52
2022-08-26T23:13:00.368Z,22.50
2022-08-26T23:15:28.262Z,22.51
2022-08-26T23:17:58.517Z,22.47
2022-08-26T23:20:38.544Z,22.43
2022-08-26T23:23:06.429Z,22.42
2022-08-26T23:25:34.201Z,22.39
2022-08-26T23:28:01.919Z,22.38
2022-08-26T23:30:30.117Z,22.36
2022-08-26T23:33:01.364Z,22.35
2022-08-26T23:35:31.902Z,22.30
2022-08-26T23:38:01.969Z,22.30
2022-08-26T23:40:32.103Z,22.33
2022-08-26T23:43:00.136Z,22.31
2022-08-26T23:45:28.044Z,22.31
2022-08-26T23:47:55.854Z,22.31
2022-08-26T23:50:44.504Z,22.28
2022-08-26T23:53:19.322Z,22.28
2022-08-26T23:55:48.093Z,22.30
2022-08-26T23:58:16.064Z,22.34
